Accueil
METAR-TAF:

METAR-TAF

Aéroports :

Tours, France

Aéroport de Tours-Val de Loire

latitude: 47-27N, longitude: 000-43E, altitude: 108 m

Observation

Le bulletin a été fait il y a 32 minutes, à 00:00 UTC
Vent 6 kt de nord-est, variant entre nord/nord-est et est
Température 0°C
Humidité 74%
Pression 1012 hPa
Visibilité 10 km ou plus
Ciel couvert à une hauteur de 3800 ft

METAR: LFOT 240000Z AUTO 05006KT 020V080 9999 OVC038 M00/M04 Q1012 NOSIG

Heure: 01:32 (00:32 UTC)

Prévision

Le bulletin a été fait il y a 1 heure et 32 minutes, à 23:00 UTC
Prévision valable du 24 à 00 UTC au 24 à 24 UTC
Vent 8 kt de nord-est
Visibilité 10 km ou plus
Nuages fragmentés à une hauteur de 3500 ft

TAF: LFOT 232300Z 2400/2424 04008KT 9999 BKN035

Observations et prévisions météorologiques de plus de 4000 aéroports (messages METAR et TAF).

Les stations disponibles sont représentées par des disques jaunes et rouges sur la carte.

Passer la souris dessus pour voir le nom de la station.

Cliquer dessus pour voir les observations et prévisions météorologiques.

Pour changer de carte: cliquez sur les boutons verts avec une croix noire pour zoomer, sur le bouton vert avec un tiret pour effectuer un zoom arrière, ou sur les flèches vertes pour les cartes adjacentes.


METAR-TAF: